sensor_id;sensor_type;location;lat;lon;timestamp;P1;durP1;ratioP1;P2;durP2;ratioP2
76667;SDS011;65585;51.166;16.922;2022-12-18T00:01:03;34.60;;;13.02;;
76667;SDS011;65585;51.166;16.922;2022-12-18T00:03:42;38.70;;;13.50;;
76667;SDS011;65585;51.166;16.922;2022-12-18T00:06:08;29.92;;;12.35;;
76667;SDS011;65585;51.166;16.922;2022-12-18T00:08:35;33.85;;;12.95;;
76667;SDS011;65585;51.166;16.922;2022-12-18T00:11:08;30.42;;;11.50;;
76667;SDS011;65585;51.166;16.922;2022-12-18T00:13:36;27.50;;;11.18;;
76667;SDS011;65585;51.166;16.922;2022-12-18T00:16:03;33.90;;;12.80;;
76667;SDS011;65585;51.166;16.922;2022-12-18T00:18:30;22.52;;;12.43;;
76667;SDS011;65585;51.166;16.922;2022-12-18T00:20:58;26.77;;;12.60;;
76667;SDS011;65585;51.166;16.922;2022-12-18T00:23:29;29.25;;;12.55;;
76667;SDS011;65585;51.166;16.922;2022-12-18T00:26:03;25.38;;;12.32;;
76667;SDS011;65585;51.166;16.922;2022-12-18T00:28:31;27.50;;;14.05;;
76667;SDS011;65585;51.166;16.922;2022-12-18T00:31:19;22.23;;;11.15;;
76667;SDS011;65585;51.166;16.922;2022-12-18T00:33:48;24.08;;;11.43;;
76667;SDS011;65585;51.166;16.922;2022-12-18T00:36:18;29.10;;;14.38;;
76667;SDS011;65585;51.166;16.922;2022-12-18T00:38:46;25.88;;;12.43;;
76667;SDS011;65585;51.166;16.922;2022-12-18T00:41:13;24.20;;;11.18;;
76667;SDS011;65585;51.166;16.922;2022-12-18T00:44:00;32.97;;;12.27;;
76667;SDS011;65585;51.166;16.922;2022-12-18T00:46:27;26.10;;;11.60;;
76667;SDS011;65585;51.166;16.922;2022-12-18T00:48:53;23.20;;;10.23;;
76667;SDS011;65585;51.166;16.922;2022-12-18T00:51:20;21.58;;;11.15;;
76667;SDS011;65585;51.166;16.922;2022-12-18T00:53:46;25.88;;;12.32;;
76667;SDS011;65585;51.166;16.922;2022-12-18T00:56:13;44.20;;;11.32;;
76667;SDS011;65585;51.166;16.922;2022-12-18T00:58:39;27.70;;;12.15;;
76667;SDS011;65585;51.166;16.922;2022-12-18T01:01:05;34.47;;;12.20;;
76667;SDS011;65585;51.166;16.922;2022-12-18T01:03:31;33.50;;;12.48;;
76667;SDS011;65585;51.166;16.922;2022-12-18T01:05:57;24.80;;;10.38;;
76667;SDS011;65585;51.166;16.922;2022-12-18T01:08:23;26.60;;;12.43;;
76667;SDS011;65585;51.166;16.922;2022-12-18T01:10:50;21.75;;;10.40;;
76667;SDS011;65585;51.166;16.922;2022-12-18T01:13:16;21.83;;;11.15;;
76667;SDS011;65585;51.166;16.922;2022-12-18T01:15:49;23.45;;;11.15;;
76667;SDS011;65585;51.166;16.922;2022-12-18T01:18:15;28.35;;;12.10;;
76667;SDS011;65585;51.166;16.922;2022-12-18T01:20:42;25.77;;;9.88;;
76667;SDS011;65585;51.166;16.922;2022-12-18T01:23:08;21.98;;;10.23;;
76667;SDS011;65585;51.166;16.922;2022-12-18T01:25:37;23.85;;;11.95;;
76667;SDS011;65585;51.166;16.922;2022-12-18T01:28:06;25.98;;;10.15;;
76667;SDS011;65585;51.166;16.922;2022-12-18T01:30:32;25.17;;;11.93;;
76667;SDS011;65585;51.166;16.922;2022-12-18T01:32:58;27.38;;;12.10;;
76667;SDS011;65585;51.166;16.922;2022-12-18T01:35:25;25.10;;;11.65;;
76667;SDS011;65585;51.166;16.922;2022-12-18T01:37:54;23.10;;;11.32;;
76667;SDS011;65585;51.166;16.922;2022-12-18T01:40:21;29.48;;;14.07;;
76667;SDS011;65585;51.166;16.922;2022-12-18T01:42:50;30.35;;;11.88;;
76667;SDS011;65585;51.166;16.922;2022-12-18T01:47:47;23.17;;;11.45;;
76667;SDS011;65585;51.166;16.922;2022-12-18T01:50:18;18.83;;;9.38;;
76667;SDS011;65585;51.166;16.922;2022-12-18T01:52:52;29.50;;;12.00;;
76667;SDS011;65585;51.166;16.922;2022-12-18T01:55:22;30.73;;;12.13;;
76667;SDS011;65585;51.166;16.922;2022-12-18T01:57:53;25.02;;;12.32;;
76667;SDS011;65585;51.166;16.922;2022-12-18T02:00:24;20.75;;;8.93;;
76667;SDS011;65585;51.166;16.922;2022-12-18T02:02:52;26.70;;;11.57;;
76667;SDS011;65585;51.166;16.922;2022-12-18T02:05:23;22.80;;;9.45;;
76667;SDS011;65585;51.166;16.922;2022-12-18T02:08:38;18.60;;;9.75;;
76667;SDS011;65585;51.166;16.922;2022-12-18T02:16:15;18.63;;;9.38;;
76667;SDS011;65585;51.166;16.922;2022-12-18T02:18:48;18.50;;;8.52;;
76667;SDS011;65585;51.166;16.922;2022-12-18T02:21:25;26.00;;;11.00;;
76667;SDS011;65585;51.166;16.922;2022-12-18T02:24:14;17.65;;;8.95;;
76667;SDS011;65585;51.166;16.922;2022-12-18T02:26:49;23.23;;;9.55;;
76667;SDS011;65585;51.166;16.922;2022-12-18T02:29:21;20.83;;;9.68;;
76667;SDS011;65585;51.166;16.922;2022-12-18T02:32:00;21.80;;;8.63;;
76667;SDS011;65585;51.166;16.922;2022-12-18T02:34:29;22.92;;;10.32;;
76667;SDS011;65585;51.166;16.922;2022-12-18T02:36:58;22.95;;;8.77;;
76667;SDS011;65585;51.166;16.922;2022-12-18T02:39:26;23.05;;;9.02;;
76667;SDS011;65585;51.166;16.922;2022-12-18T02:41:54;26.80;;;11.00;;
76667;SDS011;65585;51.166;16.922;2022-12-18T02:44:20;23.33;;;10.90;;
76667;SDS011;65585;51.166;16.922;2022-12-18T02:46:49;23.15;;;10.20;;
76667;SDS011;65585;51.166;16.922;2022-12-18T02:55:14;19.02;;;8.48;;
76667;SDS011;65585;51.166;16.922;2022-12-18T03:01:02;19.10;;;8.50;;
76667;SDS011;65585;51.166;16.922;2022-12-18T03:03:47;20.13;;;9.38;;
76667;SDS011;65585;51.166;16.922;2022-12-18T03:06:29;23.23;;;9.93;;
76667;SDS011;65585;51.166;16.922;2022-12-18T03:08:59;15.63;;;8.85;;
76667;SDS011;65585;51.166;16.922;2022-12-18T03:11:28;18.75;;;8.23;;
76667;SDS011;65585;51.166;16.922;2022-12-18T03:14:16;20.05;;;9.15;;
76667;SDS011;65585;51.166;16.922;2022-12-18T03:16:43;20.70;;;9.52;;
76667;SDS011;65585;51.166;16.922;2022-12-18T03:19:16;26.80;;;10.65;;
76667;SDS011;65585;51.166;16.922;2022-12-18T03:21:47;22.42;;;9.77;;
76667;SDS011;65585;51.166;16.922;2022-12-18T03:24:16;23.00;;;10.35;;
76667;SDS011;65585;51.166;16.922;2022-12-18T03:26:44;17.73;;;9.57;;
76667;SDS011;65585;51.166;16.922;2022-12-18T03:29:14;19.00;;;10.85;;
76667;SDS011;65585;51.166;16.922;2022-12-18T03:31:56;18.83;;;8.52;;
76667;SDS011;65585;51.166;16.922;2022-12-18T03:34:30;23.83;;;9.20;;
76667;SDS011;65585;51.166;16.922;2022-12-18T03:37:04;23.17;;;10.65;;
76667;SDS011;65585;51.166;16.922;2022-12-18T03:39:31;21.77;;;9.73;;
76667;SDS011;65585;51.166;16.922;2022-12-18T03:47:44;18.95;;;10.40;;
76667;SDS011;65585;51.166;16.922;2022-12-18T03:50:20;24.98;;;11.70;;
76667;SDS011;65585;51.166;16.922;2022-12-18T03:53:11;19.80;;;9.00;;
76667;SDS011;65585;51.166;16.922;2022-12-18T03:55:43;29.45;;;10.40;;
76667;SDS011;65585;51.166;16.922;2022-12-18T03:58:09;22.85;;;10.07;;
76667;SDS011;65585;51.166;16.922;2022-12-18T04:00:38;26.58;;;10.57;;
76667;SDS011;65585;51.166;16.922;2022-12-18T04:03:04;22.77;;;10.38;;
76667;SDS011;65585;51.166;16.922;2022-12-18T04:05:31;21.95;;;9.40;;
76667;SDS011;65585;51.166;16.922;2022-12-18T04:07:58;20.35;;;10.02;;
76667;SDS011;65585;51.166;16.922;2022-12-18T04:10:25;25.60;;;11.43;;
76667;SDS011;65585;51.166;16.922;2022-12-18T04:12:55;21.63;;;9.45;;
76667;SDS011;65585;51.166;16.922;2022-12-18T04:15:21;29.17;;;11.63;;
76667;SDS011;65585;51.166;16.922;2022-12-18T04:17:48;25.40;;;11.27;;
76667;SDS011;65585;51.166;16.922;2022-12-18T04:20:15;26.40;;;11.45;;
76667;SDS011;65585;51.166;16.922;2022-12-18T04:22:42;20.42;;;10.70;;
76667;SDS011;65585;51.166;16.922;2022-12-18T04:25:12;17.35;;;10.05;;
76667;SDS011;65585;51.166;16.922;2022-12-18T04:27:38;20.83;;;9.77;;
76667;SDS011;65585;51.166;16.922;2022-12-18T04:30:05;24.58;;;11.50;;
76667;SDS011;65585;51.166;16.922;2022-12-18T04:32:33;24.77;;;10.43;;
76667;SDS011;65585;51.166;16.922;2022-12-18T04:35:00;19.23;;;9.98;;
76667;SDS011;65585;51.166;16.922;2022-12-18T04:37:26;17.77;;;9.23;;
76667;SDS011;65585;51.166;16.922;2022-12-18T04:39:52;15.63;;;8.75;;
76667;SDS011;65585;51.166;16.922;2022-12-18T04:42:18;14.30;;;9.85;;
76667;SDS011;65585;51.166;16.922;2022-12-18T04:44:44;22.52;;;11.13;;
76667;SDS011;65585;51.166;16.922;2022-12-18T04:47:10;25.55;;;10.45;;
76667;SDS011;65585;51.166;16.922;2022-12-18T04:49:36;20.45;;;9.30;;
76667;SDS011;65585;51.166;16.922;2022-12-18T04:52:02;15.68;;;8.43;;
76667;SDS011;65585;51.166;16.922;2022-12-18T04:54:29;13.77;;;8.32;;
76667;SDS011;65585;51.166;16.922;2022-12-18T04:56:55;25.35;;;9.45;;
76667;SDS011;65585;51.166;16.922;2022-12-18T04:59:21;20.23;;;8.32;;
76667;SDS011;65585;51.166;16.922;2022-12-18T05:01:47;24.02;;;9.52;;
76667;SDS011;65585;51.166;16.922;2022-12-18T05:04:14;22.42;;;9.77;;
76667;SDS011;65585;51.166;16.922;2022-12-18T05:06:40;25.27;;;8.55;;
76667;SDS011;65585;51.166;16.922;2022-12-18T05:09:06;27.20;;;14.05;;
76667;SDS011;65585;51.166;16.922;2022-12-18T05:11:32;25.67;;;11.38;;
76667;SDS011;65585;51.166;16.922;2022-12-18T05:14:02;18.95;;;10.10;;
76667;SDS011;65585;51.166;16.922;2022-12-18T05:16:27;24.38;;;10.50;;
76667;SDS011;65585;51.166;16.922;2022-12-18T05:18:54;16.73;;;8.95;;
76667;SDS011;65585;51.166;16.922;2022-12-18T05:21:20;24.92;;;9.70;;
76667;SDS011;65585;51.166;16.922;2022-12-18T05:23:46;21.55;;;9.18;;
76667;SDS011;65585;51.166;16.922;2022-12-18T05:26:16;27.75;;;11.82;;
76667;SDS011;65585;51.166;16.922;2022-12-18T05:28:43;18.33;;;9.07;;
76667;SDS011;65585;51.166;16.922;2022-12-18T05:31:10;19.95;;;8.82;;
76667;SDS011;65585;51.166;16.922;2022-12-18T05:33:37;32.95;;;11.05;;
76667;SDS011;65585;51.166;16.922;2022-12-18T05:36:04;39.00;;;16.02;;
76667;SDS011;65585;51.166;16.922;2022-12-18T05:40:58;16.45;;;9.27;;
76667;SDS011;65585;51.166;16.922;2022-12-18T05:43:25;29.95;;;12.55;;
76667;SDS011;65585;51.166;16.922;2022-12-18T05:45:52;23.55;;;10.05;;
76667;SDS011;65585;51.166;16.922;2022-12-18T05:48:19;20.85;;;8.85;;
76667;SDS011;65585;51.166;16.922;2022-12-18T05:50:49;25.10;;;10.73;;
76667;SDS011;65585;51.166;16.922;2022-12-18T05:53:16;19.30;;;8.75;;
76667;SDS011;65585;51.166;16.922;2022-12-18T05:55:44;20.70;;;11.38;;
76667;SDS011;65585;51.166;16.922;2022-12-18T05:58:12;17.83;;;9.50;;
76667;SDS011;65585;51.166;16.922;2022-12-18T06:00:39;21.75;;;10.27;;
76667;SDS011;65585;51.166;16.922;2022-12-18T06:03:07;27.15;;;10.55;;
76667;SDS011;65585;51.166;16.922;2022-12-18T06:05:34;17.17;;;8.50;;
76667;SDS011;65585;51.166;16.922;2022-12-18T06:10:29;23.15;;;10.95;;
76667;SDS011;65585;51.166;16.922;2022-12-18T06:12:55;26.25;;;9.63;;
76667;SDS011;65585;51.166;16.922;2022-12-18T06:15:21;21.13;;;10.30;;
76667;SDS011;65585;51.166;16.922;2022-12-18T06:17:48;22.33;;;9.82;;
76667;SDS011;65585;51.166;16.922;2022-12-18T06:20:14;15.48;;;8.90;;
76667;SDS011;65585;51.166;16.922;2022-12-18T06:22:40;28.67;;;12.50;;
76667;SDS011;65585;51.166;16.922;2022-12-18T06:25:06;25.13;;;10.15;;
76667;SDS011;65585;51.166;16.922;2022-12-18T06:27:33;22.58;;;11.52;;
76667;SDS011;65585;51.166;16.922;2022-12-18T06:30:00;17.55;;;10.43;;
76667;SDS011;65585;51.166;16.922;2022-12-18T06:32:26;21.02;;;10.27;;
76667;SDS011;65585;51.166;16.922;2022-12-18T06:34:52;33.22;;;13.73;;
76667;SDS011;65585;51.166;16.922;2022-12-18T06:37:21;27.40;;;13.40;;
76667;SDS011;65585;51.166;16.922;2022-12-18T06:39:50;26.45;;;12.10;;
76667;SDS011;65585;51.166;16.922;2022-12-18T06:42:16;27.08;;;12.45;;
76667;SDS011;65585;51.166;16.922;2022-12-18T06:44:42;26.02;;;12.35;;
76667;SDS011;65585;51.166;16.922;2022-12-18T06:47:08;29.42;;;12.75;;
76667;SDS011;65585;51.166;16.922;2022-12-18T06:49:34;26.88;;;12.65;;
76667;SDS011;65585;51.166;16.922;2022-12-18T06:52:01;35.35;;;14.77;;
76667;SDS011;65585;51.166;16.922;2022-12-18T06:54:28;28.52;;;12.68;;
76667;SDS011;65585;51.166;16.922;2022-12-18T06:56:57;36.75;;;14.35;;
76667;SDS011;65585;51.166;16.922;2022-12-18T06:59:23;29.05;;;13.90;;
76667;SDS011;65585;51.166;16.922;2022-12-18T07:01:49;45.58;;;21.27;;
76667;SDS011;65585;51.166;16.922;2022-12-18T07:04:15;25.67;;;13.18;;
76667;SDS011;65585;51.166;16.922;2022-12-18T07:06:42;27.38;;;13.13;;
76667;SDS011;65585;51.166;16.922;2022-12-18T07:09:08;26.08;;;12.02;;
76667;SDS011;65585;51.166;16.922;2022-12-18T07:11:34;28.55;;;11.85;;
76667;SDS011;65585;51.166;16.922;2022-12-18T07:14:00;30.55;;;15.27;;
76667;SDS011;65585;51.166;16.922;2022-12-18T07:16:26;37.58;;;13.88;;
76667;SDS011;65585;51.166;16.922;2022-12-18T07:18:54;24.20;;;12.63;;
76667;SDS011;65585;51.166;16.922;2022-12-18T07:21:22;32.75;;;13.65;;
76667;SDS011;65585;51.166;16.922;2022-12-18T07:23:49;26.00;;;12.73;;
76667;SDS011;65585;51.166;16.922;2022-12-18T07:26:17;27.80;;;13.35;;
76667;SDS011;65585;51.166;16.922;2022-12-18T07:28:44;43.15;;;16.02;;
76667;SDS011;65585;51.166;16.922;2022-12-18T07:31:11;32.03;;;13.95;;
76667;SDS011;65585;51.166;16.922;2022-12-18T07:33:40;40.85;;;17.25;;
76667;SDS011;65585;51.166;16.922;2022-12-18T07:36:07;31.98;;;14.20;;
76667;SDS011;65585;51.166;16.922;2022-12-18T07:38:35;46.90;;;16.67;;
76667;SDS011;65585;51.166;16.922;2022-12-18T07:41:03;30.05;;;13.80;;
76667;SDS011;65585;51.166;16.922;2022-12-18T07:43:36;30.27;;;14.70;;
76667;SDS011;65585;51.166;16.922;2022-12-18T07:46:03;31.88;;;12.90;;
76667;SDS011;65585;51.166;16.922;2022-12-18T07:48:30;24.80;;;11.90;;
76667;SDS011;65585;51.166;16.922;2022-12-18T07:51:04;26.20;;;13.90;;
76667;SDS011;65585;51.166;16.922;2022-12-18T07:53:31;28.73;;;12.70;;
76667;SDS011;65585;51.166;16.922;2022-12-18T07:55:59;30.05;;;14.75;;
76667;SDS011;65585;51.166;16.922;2022-12-18T07:58:27;27.85;;;13.13;;
76667;SDS011;65585;51.166;16.922;2022-12-18T08:01:01;28.67;;;12.98;;
76667;SDS011;65585;51.166;16.922;2022-12-18T08:03:30;23.65;;;12.32;;
76667;SDS011;65585;51.166;16.922;2022-12-18T08:06:00;19.40;;;10.55;;
76667;SDS011;65585;51.166;16.922;2022-12-18T08:08:27;22.90;;;11.35;;
76667;SDS011;65585;51.166;16.922;2022-12-18T08:10:54;34.13;;;15.13;;
76667;SDS011;65585;51.166;16.922;2022-12-18T08:13:20;45.45;;;17.15;;
76667;SDS011;65585;51.166;16.922;2022-12-18T08:15:55;30.73;;;14.55;;
76667;SDS011;65585;51.166;16.922;2022-12-18T08:18:25;23.60;;;11.35;;
76667;SDS011;65585;51.166;16.922;2022-12-18T08:20:52;26.60;;;13.60;;
76667;SDS011;65585;51.166;16.922;2022-12-18T08:23:18;24.65;;;11.95;;
76667;SDS011;65585;51.166;16.922;2022-12-18T08:25:44;21.25;;;11.55;;
76667;SDS011;65585;51.166;16.922;2022-12-18T08:28:11;20.15;;;10.93;;
76667;SDS011;65585;51.166;16.922;2022-12-18T08:30:37;23.42;;;11.38;;
76667;SDS011;65585;51.166;16.922;2022-12-18T08:33:03;29.35;;;13.05;;
76667;SDS011;65585;51.166;16.922;2022-12-18T08:35:30;22.75;;;11.82;;
76667;SDS011;65585;51.166;16.922;2022-12-18T08:37:56;21.58;;;12.23;;
76667;SDS011;65585;51.166;16.922;2022-12-18T08:40:22;31.17;;;17.52;;
76667;SDS011;65585;51.166;16.922;2022-12-18T08:42:48;28.95;;;13.45;;
76667;SDS011;65585;51.166;16.922;2022-12-18T08:45:33;29.58;;;15.70;;
76667;SDS011;65585;51.166;16.922;2022-12-18T08:47:59;45.65;;;20.20;;
76667;SDS011;65585;51.166;16.922;2022-12-18T08:50:27;24.85;;;13.98;;
76667;SDS011;65585;51.166;16.922;2022-12-18T08:52:53;22.45;;;12.32;;
76667;SDS011;65585;51.166;16.922;2022-12-18T08:55:20;28.30;;;14.82;;
76667;SDS011;65585;51.166;16.922;2022-12-18T08:57:48;30.25;;;15.38;;
76667;SDS011;65585;51.166;16.922;2022-12-18T09:00:15;32.53;;;14.30;;
76667;SDS011;65585;51.166;16.922;2022-12-18T09:02:41;35.15;;;17.48;;
76667;SDS011;65585;51.166;16.922;2022-12-18T09:05:08;35.20;;;16.00;;
76667;SDS011;65585;51.166;16.922;2022-12-18T09:07:34;26.05;;;13.27;;
76667;SDS011;65585;51.166;16.922;2022-12-18T09:10:00;35.00;;;14.77;;
76667;SDS011;65585;51.166;16.922;2022-12-18T09:12:26;30.98;;;12.55;;
76667;SDS011;65585;51.166;16.922;2022-12-18T09:14:52;31.38;;;14.68;;
76667;SDS011;65585;51.166;16.922;2022-12-18T09:17:18;26.95;;;14.07;;
76667;SDS011;65585;51.166;16.922;2022-12-18T09:19:45;24.83;;;13.55;;
76667;SDS011;65585;51.166;16.922;2022-12-18T09:22:11;25.63;;;12.68;;
76667;SDS011;65585;51.166;16.922;2022-12-18T09:24:37;24.88;;;12.40;;
76667;SDS011;65585;51.166;16.922;2022-12-18T09:27:03;30.73;;;16.90;;
76667;SDS011;65585;51.166;16.922;2022-12-18T09:29:30;24.17;;;11.13;;
76667;SDS011;65585;51.166;16.922;2022-12-18T09:31:56;27.38;;;14.00;;
76667;SDS011;65585;51.166;16.922;2022-12-18T09:34:22;21.35;;;12.38;;
76667;SDS011;65585;51.166;16.922;2022-12-18T09:36:48;26.98;;;13.15;;
76667;SDS011;65585;51.166;16.922;2022-12-18T09:39:15;29.65;;;14.95;;
76667;SDS011;65585;51.166;16.922;2022-12-18T09:41:43;28.13;;;12.52;;
76667;SDS011;65585;51.166;16.922;2022-12-18T09:44:35;23.33;;;11.95;;
76667;SDS011;65585;51.166;16.922;2022-12-18T09:47:09;24.40;;;13.95;;
76667;SDS011;65585;51.166;16.922;2022-12-18T09:49:40;28.23;;;13.95;;
76667;SDS011;65585;51.166;16.922;2022-12-18T09:52:11;26.92;;;14.70;;
76667;SDS011;65585;51.166;16.922;2022-12-18T09:55:00;36.22;;;16.95;;
76667;SDS011;65585;51.166;16.922;2022-12-18T09:57:55;27.27;;;13.15;;
76667;SDS011;65585;51.166;16.922;2022-12-18T10:00:24;25.25;;;11.40;;
76667;SDS011;65585;51.166;16.922;2022-12-18T10:02:56;25.13;;;12.18;;
76667;SDS011;65585;51.166;16.922;2022-12-18T10:06:14;26.20;;;13.57;;
76667;SDS011;65585;51.166;16.922;2022-12-18T10:10:53;33.88;;;14.27;;
76667;SDS011;65585;51.166;16.922;2022-12-18T10:16:12;25.48;;;12.10;;
76667;SDS011;65585;51.166;16.922;2022-12-18T10:24:25;24.33;;;13.23;;
76667;SDS011;65585;51.166;16.922;2022-12-18T10:27:23;26.85;;;13.40;;
76667;SDS011;65585;51.166;16.922;2022-12-18T10:29:48;23.20;;;13.50;;
76667;SDS011;65585;51.166;16.922;2022-12-18T10:32:18;41.63;;;19.70;;
76667;SDS011;65585;51.166;16.922;2022-12-18T10:34:47;39.22;;;16.40;;
76667;SDS011;65585;51.166;16.922;2022-12-18T10:37:19;26.52;;;14.13;;
76667;SDS011;65585;51.166;16.922;2022-12-18T10:40:07;28.38;;;13.05;;
76667;SDS011;65585;51.166;16.922;2022-12-18T10:42:41;32.88;;;13.95;;
76667;SDS011;65585;51.166;16.922;2022-12-18T10:45:13;24.20;;;11.35;;
76667;SDS011;65585;51.166;16.922;2022-12-18T10:47:44;25.17;;;12.30;;
76667;SDS011;65585;51.166;16.922;2022-12-18T10:50:45;24.73;;;11.63;;
76667;SDS011;65585;51.166;16.922;2022-12-18T10:53:04;21.52;;;11.82;;
76667;SDS011;65585;51.166;16.922;2022-12-18T10:55:35;17.65;;;9.82;;
76667;SDS011;65585;51.166;16.922;2022-12-18T10:58:16;23.02;;;12.77;;
76667;SDS011;65585;51.166;16.922;2022-12-18T11:01:08;27.20;;;13.30;;
76667;SDS011;65585;51.166;16.922;2022-12-18T11:06:10;29.73;;;13.40;;
76667;SDS011;65585;51.166;16.922;2022-12-18T11:08:42;18.35;;;12.05;;
76667;SDS011;65585;51.166;16.922;2022-12-18T11:11:19;25.30;;;12.63;;
76667;SDS011;65585;51.166;16.922;2022-12-18T11:16:27;29.55;;;13.63;;
76667;SDS011;65585;51.166;16.922;2022-12-18T11:18:54;27.70;;;15.45;;
76667;SDS011;65585;51.166;16.922;2022-12-18T11:21:20;28.58;;;13.38;;
76667;SDS011;65585;51.166;16.922;2022-12-18T11:23:50;32.50;;;13.65;;
76667;SDS011;65585;51.166;16.922;2022-12-18T11:26:20;23.95;;;11.65;;
76667;SDS011;65585;51.166;16.922;2022-12-18T11:28:51;24.60;;;10.52;;
76667;SDS011;65585;51.166;16.922;2022-12-18T11:31:27;28.75;;;12.18;;
76667;SDS011;65585;51.166;16.922;2022-12-18T11:36:29;23.80;;;11.75;;
76667;SDS011;65585;51.166;16.922;2022-12-18T11:39:02;25.60;;;12.60;;
76667;SDS011;65585;51.166;16.922;2022-12-18T11:42:23;30.55;;;12.32;;
76667;SDS011;65585;51.166;16.922;2022-12-18T11:44:51;31.55;;;13.90;;
76667;SDS011;65585;51.166;16.922;2022-12-18T11:47:23;33.10;;;14.10;;
76667;SDS011;65585;51.166;16.922;2022-12-18T11:53:17;24.70;;;12.60;;
76667;SDS011;65585;51.166;16.922;2022-12-18T11:58:42;20.55;;;11.05;;
76667;SDS011;65585;51.166;16.922;2022-12-18T12:29:43;53.88;;;25.25;;
76667;SDS011;65585;51.166;16.922;2022-12-18T12:34:58;35.08;;;18.33;;
76667;SDS011;65585;51.166;16.922;2022-12-18T12:37:53;35.08;;;18.08;;
76667;SDS011;65585;51.166;16.922;2022-12-18T12:40:47;26.33;;;14.13;;
76667;SDS011;65585;51.166;16.922;2022-12-18T12:46:10;26.58;;;16.58;;
76667;SDS011;65585;51.166;16.922;2022-12-18T12:48:42;36.67;;;16.05;;
76667;SDS011;65585;51.166;16.922;2022-12-18T12:53:50;31.48;;;12.82;;
76667;SDS011;65585;51.166;16.922;2022-12-18T12:56:18;31.08;;;13.43;;
76667;SDS011;65585;51.166;16.922;2022-12-18T13:02:22;29.02;;;14.57;;
76667;SDS011;65585;51.166;16.922;2022-12-18T13:07:28;39.40;;;15.52;;
76667;SDS011;65585;51.166;16.922;2022-12-18T13:12:56;30.02;;;12.45;;
76667;SDS011;65585;51.166;16.922;2022-12-18T13:15:31;44.83;;;19.27;;
76667;SDS011;65585;51.166;16.922;2022-12-18T13:20:46;29.13;;;13.65;;
76667;SDS011;65585;51.166;16.922;2022-12-18T13:25:50;27.83;;;15.32;;
76667;SDS011;65585;51.166;16.922;2022-12-18T13:28:21;31.92;;;16.15;;
76667;SDS011;65585;51.166;16.922;2022-12-18T13:30:54;28.13;;;13.48;;
76667;SDS011;65585;51.166;16.922;2022-12-18T13:41:38;30.75;;;13.98;;
76667;SDS011;65585;51.166;16.922;2022-12-18T13:44:10;36.05;;;15.95;;
76667;SDS011;65585;51.166;16.922;2022-12-18T13:46:47;34.13;;;15.95;;
76667;SDS011;65585;51.166;16.922;2022-12-18T13:52:02;40.95;;;17.50;;
76667;SDS011;65585;51.166;16.922;2022-12-18T13:54:37;36.05;;;16.98;;
76667;SDS011;65585;51.166;16.922;2022-12-18T13:57:12;33.92;;;14.48;;
76667;SDS011;65585;51.166;16.922;2022-12-18T13:59:51;34.65;;;13.45;;
76667;SDS011;65585;51.166;16.922;2022-12-18T14:02:24;36.15;;;15.00;;
76667;SDS011;65585;51.166;16.922;2022-12-18T14:07:52;34.42;;;14.00;;
76667;SDS011;65585;51.166;16.922;2022-12-18T14:10:40;25.27;;;14.10;;
76667;SDS011;65585;51.166;16.922;2022-12-18T14:13:14;24.25;;;12.95;;
76667;SDS011;65585;51.166;16.922;2022-12-18T14:15:43;29.70;;;13.38;;
76667;SDS011;65585;51.166;16.922;2022-12-18T14:20:58;34.35;;;18.10;;
76667;SDS011;65585;51.166;16.922;2022-12-18T14:25:52;34.97;;;17.50;;
76667;SDS011;65585;51.166;16.922;2022-12-18T14:28:18;35.45;;;15.20;;
76667;SDS011;65585;51.166;16.922;2022-12-18T14:33:21;32.97;;;16.33;;
76667;SDS011;65585;51.166;16.922;2022-12-18T14:35:53;29.48;;;14.43;;
76667;SDS011;65585;51.166;16.922;2022-12-18T14:38:30;29.90;;;14.30;;
76667;SDS011;65585;51.166;16.922;2022-12-18T14:41:02;37.78;;;16.88;;
76667;SDS011;65585;51.166;16.922;2022-12-18T14:43:33;41.10;;;19.15;;
76667;SDS011;65585;51.166;16.922;2022-12-18T14:46:01;30.70;;;14.13;;
76667;SDS011;65585;51.166;16.922;2022-12-18T14:51:15;38.45;;;13.05;;
76667;SDS011;65585;51.166;16.922;2022-12-18T14:53:47;29.17;;;12.75;;
76667;SDS011;65585;51.166;16.922;2022-12-18T14:56:35;25.77;;;12.55;;
76667;SDS011;65585;51.166;16.922;2022-12-18T14:59:03;27.55;;;13.10;;
76667;SDS011;65585;51.166;16.922;2022-12-18T15:04:01;30.67;;;14.90;;
76667;SDS011;65585;51.166;16.922;2022-12-18T15:06:34;32.40;;;13.52;;
76667;SDS011;65585;51.166;16.922;2022-12-18T15:09:03;32.28;;;12.88;;
76667;SDS011;65585;51.166;16.922;2022-12-18T15:11:55;26.48;;;13.45;;
76667;SDS011;65585;51.166;16.922;2022-12-18T15:14:39;30.50;;;14.20;;
76667;SDS011;65585;51.166;16.922;2022-12-18T15:17:16;24.73;;;12.45;;
76667;SDS011;65585;51.166;16.922;2022-12-18T15:19:44;32.85;;;13.65;;
76667;SDS011;65585;51.166;16.922;2022-12-18T15:22:32;29.45;;;13.32;;
76667;SDS011;65585;51.166;16.922;2022-12-18T15:24:59;27.65;;;14.07;;
76667;SDS011;65585;51.166;16.922;2022-12-18T15:30:00;33.17;;;13.57;;
76667;SDS011;65585;51.166;16.922;2022-12-18T15:32:28;35.92;;;15.55;;
76667;SDS011;65585;51.166;16.922;2022-12-18T15:40:12;25.88;;;12.85;;
76667;SDS011;65585;51.166;16.922;2022-12-18T15:42:40;29.15;;;12.05;;
76667;SDS011;65585;51.166;16.922;2022-12-18T15:45:24;33.38;;;14.52;;
76667;SDS011;65585;51.166;16.922;2022-12-18T15:47:51;26.55;;;12.40;;
76667;SDS011;65585;51.166;16.922;2022-12-18T15:50:17;35.63;;;17.63;;
76667;SDS011;65585;51.166;16.922;2022-12-18T15:52:47;27.45;;;13.75;;
76667;SDS011;65585;51.166;16.922;2022-12-18T15:55:16;25.02;;;11.60;;
76667;SDS011;65585;51.166;16.922;2022-12-18T15:58:03;28.73;;;12.45;;
76667;SDS011;65585;51.166;16.922;2022-12-18T16:00:31;30.35;;;15.35;;
76667;SDS011;65585;51.166;16.922;2022-12-18T16:02:58;32.13;;;15.13;;
76667;SDS011;65585;51.166;16.922;2022-12-18T16:05:24;37.03;;;16.67;;
76667;SDS011;65585;51.166;16.922;2022-12-18T16:07:53;34.58;;;14.55;;
76667;SDS011;65585;51.166;16.922;2022-12-18T16:10:22;40.10;;;15.80;;
76667;SDS011;65585;51.166;16.922;2022-12-18T16:12:51;38.67;;;17.83;;
76667;SDS011;65585;51.166;16.922;2022-12-18T16:15:17;45.10;;;21.13;;
76667;SDS011;65585;51.166;16.922;2022-12-18T16:17:44;36.30;;;16.58;;
76667;SDS011;65585;51.166;16.922;2022-12-18T16:20:15;31.05;;;16.25;;
76667;SDS011;65585;51.166;16.922;2022-12-18T16:22:45;36.85;;;17.58;;
76667;SDS011;65585;51.166;16.922;2022-12-18T16:25:17;35.53;;;15.35;;
76667;SDS011;65585;51.166;16.922;2022-12-18T16:27:49;35.67;;;17.20;;
76667;SDS011;65585;51.166;16.922;2022-12-18T16:30:16;36.47;;;19.00;;
76667;SDS011;65585;51.166;16.922;2022-12-18T16:32:47;43.83;;;16.65;;
76667;SDS011;65585;51.166;16.922;2022-12-18T16:35:14;41.28;;;18.45;;
76667;SDS011;65585;51.166;16.922;2022-12-18T16:37:41;32.20;;;15.85;;
76667;SDS011;65585;51.166;16.922;2022-12-18T16:40:09;40.38;;;20.02;;
76667;SDS011;65585;51.166;16.922;2022-12-18T16:42:38;36.80;;;15.95;;
76667;SDS011;65585;51.166;16.922;2022-12-18T16:45:05;43.55;;;17.70;;
76667;SDS011;65585;51.166;16.922;2022-12-18T16:47:33;30.48;;;13.98;;